sensor_id;sensor_type;location;lat;lon;timestamp;P1;durP1;ratioP1;P2;durP2;ratioP2
35290;SDS011;21411;50.024;19.220;2022-08-19T00:00:30;14.90;;;13.40;;
35290;SDS011;21411;50.024;19.220;2022-08-19T00:03:05;15.40;;;13.80;;
35290;SDS011;21411;50.024;19.220;2022-08-19T00:05:33;14.90;;;13.40;;
35290;SDS011;21411;50.024;19.220;2022-08-19T00:08:00;17.20;;;15.50;;
35290;SDS011;21411;50.024;19.220;2022-08-19T00:10:27;15.90;;;14.40;;
35290;SDS011;21411;50.024;19.220;2022-08-19T00:12:54;16.30;;;14.80;;
35290;SDS011;21411;50.024;19.220;2022-08-19T00:15:21;17.10;;;15.50;;
35290;SDS011;21411;50.024;19.220;2022-08-19T00:17:48;16.20;;;14.80;;
35290;SDS011;21411;50.024;19.220;2022-08-19T00:20:17;15.90;;;14.50;;
35290;SDS011;21411;50.024;19.220;2022-08-19T00:22:47;16.10;;;14.60;;
35290;SDS011;21411;50.024;19.220;2022-08-19T00:25:14;17.80;;;15.90;;
35290;SDS011;21411;50.024;19.220;2022-08-19T00:27:42;17.50;;;15.90;;
35290;SDS011;21411;50.024;19.220;2022-08-19T00:30:08;17.50;;;15.90;;
35290;SDS011;21411;50.024;19.220;2022-08-19T00:32:36;18.10;;;16.40;;
35290;SDS011;21411;50.024;19.220;2022-08-19T00:35:03;17.40;;;15.70;;
35290;SDS011;21411;50.024;19.220;2022-08-19T00:37:31;16.60;;;15.00;;
35290;SDS011;21411;50.024;19.220;2022-08-19T00:39:59;17.00;;;15.60;;
35290;SDS011;21411;50.024;19.220;2022-08-19T00:42:25;17.30;;;15.70;;
35290;SDS011;21411;50.024;19.220;2022-08-19T00:44:54;16.30;;;15.00;;
35290;SDS011;21411;50.024;19.220;2022-08-19T00:47:21;17.60;;;15.90;;
35290;SDS011;21411;50.024;19.220;2022-08-19T00:49:52;20.00;;;18.20;;
35290;SDS011;21411;50.024;19.220;2022-08-19T00:52:29;18.50;;;16.70;;
35290;SDS011;21411;50.024;19.220;2022-08-19T00:54:59;18.20;;;16.50;;
35290;SDS011;21411;50.024;19.220;2022-08-19T00:57:31;18.10;;;16.40;;
35290;SDS011;21411;50.024;19.220;2022-08-19T01:00:03;19.00;;;17.10;;
35290;SDS011;21411;50.024;19.220;2022-08-19T01:02:36;17.90;;;16.20;;
35290;SDS011;21411;50.024;19.220;2022-08-19T01:05:03;19.10;;;17.30;;
35290;SDS011;21411;50.024;19.220;2022-08-19T01:07:33;19.70;;;17.90;;
35290;SDS011;21411;50.024;19.220;2022-08-19T01:10:01;19.40;;;17.30;;
35290;SDS011;21411;50.024;19.220;2022-08-19T01:12:28;19.50;;;17.70;;
35290;SDS011;21411;50.024;19.220;2022-08-19T01:14:56;18.90;;;17.30;;
35290;SDS011;21411;50.024;19.220;2022-08-19T01:17:24;18.70;;;17.20;;
35290;SDS011;21411;50.024;19.220;2022-08-19T01:19:51;20.30;;;18.40;;
35290;SDS011;21411;50.024;19.220;2022-08-19T01:24:53;20.40;;;18.60;;
35290;SDS011;21411;50.024;19.220;2022-08-19T01:27:20;19.00;;;17.40;;
35290;SDS011;21411;50.024;19.220;2022-08-19T01:29:47;20.40;;;18.40;;
35290;SDS011;21411;50.024;19.220;2022-08-19T01:32:14;20.20;;;18.50;;
35290;SDS011;21411;50.024;19.220;2022-08-19T01:34:43;21.00;;;19.10;;
35290;SDS011;21411;50.024;19.220;2022-08-19T01:37:13;20.90;;;19.00;;
35290;SDS011;21411;50.024;19.220;2022-08-19T01:39:40;21.20;;;19.30;;
35290;SDS011;21411;50.024;19.220;2022-08-19T01:42:08;21.80;;;19.80;;
35290;SDS011;21411;50.024;19.220;2022-08-19T01:44:39;21.20;;;19.20;;
35290;SDS011;21411;50.024;19.220;2022-08-19T01:47:08;22.70;;;20.50;;
35290;SDS011;21411;50.024;19.220;2022-08-19T01:49:35;21.90;;;20.00;;
35290;SDS011;21411;50.024;19.220;2022-08-19T01:52:03;22.50;;;20.30;;
35290;SDS011;21411;50.024;19.220;2022-08-19T01:54:31;23.10;;;20.90;;
35290;SDS011;21411;50.024;19.220;2022-08-19T01:57:05;21.50;;;19.40;;
35290;SDS011;21411;50.024;19.220;2022-08-19T01:59:34;22.40;;;20.20;;
35290;SDS011;21411;50.024;19.220;2022-08-19T02:02:04;23.00;;;20.80;;
35290;SDS011;21411;50.024;19.220;2022-08-19T02:04:33;21.30;;;19.30;;
35290;SDS011;21411;50.024;19.220;2022-08-19T02:07:00;21.80;;;19.90;;
35290;SDS011;21411;50.024;19.220;2022-08-19T02:09:27;22.70;;;20.70;;
35290;SDS011;21411;50.024;19.220;2022-08-19T02:11:54;22.20;;;20.10;;
35290;SDS011;21411;50.024;19.220;2022-08-19T02:14:21;21.90;;;20.00;;
35290;SDS011;21411;50.024;19.220;2022-08-19T02:16:48;23.00;;;20.90;;
35290;SDS011;21411;50.024;19.220;2022-08-19T02:19:14;21.40;;;19.30;;
35290;SDS011;21411;50.024;19.220;2022-08-19T02:21:41;21.90;;;20.00;;
35290;SDS011;21411;50.024;19.220;2022-08-19T02:24:09;26.10;;;23.70;;
35290;SDS011;21411;50.024;19.220;2022-08-19T02:26:36;23.40;;;21.20;;
35290;SDS011;21411;50.024;19.220;2022-08-19T02:29:02;22.00;;;20.00;;
35290;SDS011;21411;50.024;19.220;2022-08-19T02:31:29;21.90;;;19.90;;
35290;SDS011;21411;50.024;19.220;2022-08-19T02:33:56;22.60;;;20.50;;
35290;SDS011;21411;50.024;19.220;2022-08-19T02:36:23;23.00;;;20.60;;
35290;SDS011;21411;50.024;19.220;2022-08-19T02:38:51;21.50;;;19.50;;
35290;SDS011;21411;50.024;19.220;2022-08-19T02:41:19;21.10;;;19.20;;
35290;SDS011;21411;50.024;19.220;2022-08-19T02:43:48;23.00;;;20.90;;
35290;SDS011;21411;50.024;19.220;2022-08-19T02:46:17;22.30;;;20.10;;
35290;SDS011;21411;50.024;19.220;2022-08-19T02:48:49;22.10;;;20.20;;
35290;SDS011;21411;50.024;19.220;2022-08-19T02:51:22;22.10;;;20.20;;
35290;SDS011;21411;50.024;19.220;2022-08-19T02:53:53;23.50;;;21.40;;
35290;SDS011;21411;50.024;19.220;2022-08-19T02:56:20;23.50;;;21.40;;
35290;SDS011;21411;50.024;19.220;2022-08-19T02:58:47;23.40;;;21.40;;
35290;SDS011;21411;50.024;19.220;2022-08-19T03:03:53;24.20;;;22.10;;
35290;SDS011;21411;50.024;19.220;2022-08-19T03:06:20;24.00;;;21.90;;
35290;SDS011;21411;50.024;19.220;2022-08-19T03:08:47;25.10;;;22.70;;
35290;SDS011;21411;50.024;19.220;2022-08-19T03:11:17;24.00;;;21.80;;
35290;SDS011;21411;50.024;19.220;2022-08-19T03:13:45;25.50;;;23.30;;
35290;SDS011;21411;50.024;19.220;2022-08-19T03:16:12;26.30;;;23.80;;
35290;SDS011;21411;50.024;19.220;2022-08-19T03:18:39;24.60;;;22.40;;
35290;SDS011;21411;50.024;19.220;2022-08-19T03:21:05;23.80;;;21.50;;
35290;SDS011;21411;50.024;19.220;2022-08-19T03:23:32;23.80;;;21.60;;
35290;SDS011;21411;50.024;19.220;2022-08-19T03:26:02;23.60;;;21.50;;
35290;SDS011;21411;50.024;19.220;2022-08-19T03:28:30;24.40;;;22.20;;
35290;SDS011;21411;50.024;19.220;2022-08-19T03:31:02;23.50;;;21.30;;
35290;SDS011;21411;50.024;19.220;2022-08-19T03:33:34;24.20;;;22.00;;
35290;SDS011;21411;50.024;19.220;2022-08-19T03:38:28;23.60;;;21.50;;
35290;SDS011;21411;50.024;19.220;2022-08-19T03:40:56;25.10;;;22.80;;
35290;SDS011;21411;50.024;19.220;2022-08-19T03:43:23;24.20;;;22.00;;
35290;SDS011;21411;50.024;19.220;2022-08-19T03:46:02;24.50;;;22.10;;
35290;SDS011;21411;50.024;19.220;2022-08-19T03:48:35;24.90;;;22.60;;
35290;SDS011;21411;50.024;19.220;2022-08-19T03:51:02;24.70;;;22.30;;
35290;SDS011;21411;50.024;19.220;2022-08-19T03:53:30;24.00;;;21.70;;
35290;SDS011;21411;50.024;19.220;2022-08-19T03:55:58;24.10;;;21.60;;
35290;SDS011;21411;50.024;19.220;2022-08-19T03:58:26;23.50;;;21.30;;
35290;SDS011;21411;50.024;19.220;2022-08-19T04:00:55;23.40;;;21.30;;
35290;SDS011;21411;50.024;19.220;2022-08-19T04:03:23;24.40;;;22.20;;
35290;SDS011;21411;50.024;19.220;2022-08-19T04:05:50;23.00;;;21.00;;
35290;SDS011;21411;50.024;19.220;2022-08-19T04:08:17;22.60;;;20.70;;
35290;SDS011;21411;50.024;19.220;2022-08-19T04:10:47;23.00;;;20.90;;
35290;SDS011;21411;50.024;19.220;2022-08-19T04:13:15;22.70;;;20.60;;
35290;SDS011;21411;50.024;19.220;2022-08-19T04:15:43;21.90;;;19.90;;
35290;SDS011;21411;50.024;19.220;2022-08-19T04:18:12;22.00;;;20.00;;
35290;SDS011;21411;50.024;19.220;2022-08-19T04:20:43;23.00;;;20.90;;
35290;SDS011;21411;50.024;19.220;2022-08-19T04:23:12;21.40;;;19.30;;
35290;SDS011;21411;50.024;19.220;2022-08-19T04:25:41;21.80;;;19.70;;
35290;SDS011;21411;50.024;19.220;2022-08-19T04:28:10;19.90;;;18.20;;
35290;SDS011;21411;50.024;19.220;2022-08-19T04:30:39;21.70;;;19.80;;
35290;SDS011;21411;50.024;19.220;2022-08-19T04:33:07;21.50;;;19.30;;
35290;SDS011;21411;50.024;19.220;2022-08-19T04:35:36;20.40;;;18.50;;
35290;SDS011;21411;50.024;19.220;2022-08-19T04:38:05;20.30;;;18.30;;
35290;SDS011;21411;50.024;19.220;2022-08-19T04:40:33;18.90;;;17.40;;
35290;SDS011;21411;50.024;19.220;2022-08-19T04:43:23;19.70;;;17.80;;
35290;SDS011;21411;50.024;19.220;2022-08-19T04:45:50;19.00;;;17.00;;
35290;SDS011;21411;50.024;19.220;2022-08-19T04:48:17;19.10;;;17.30;;
35290;SDS011;21411;50.024;19.220;2022-08-19T04:50:52;18.70;;;16.80;;
35290;SDS011;21411;50.024;19.220;2022-08-19T04:53:30;18.40;;;16.70;;
35290;SDS011;21411;50.024;19.220;2022-08-19T04:55:59;18.10;;;16.50;;
35290;SDS011;21411;50.024;19.220;2022-08-19T04:58:29;17.30;;;15.80;;
35290;SDS011;21411;50.024;19.220;2022-08-19T05:00:56;18.40;;;16.70;;
35290;SDS011;21411;50.024;19.220;2022-08-19T05:03:26;17.40;;;15.70;;
35290;SDS011;21411;50.024;19.220;2022-08-19T05:05:52;18.70;;;16.90;;
35290;SDS011;21411;50.024;19.220;2022-08-19T05:08:20;17.20;;;15.80;;
35290;SDS011;21411;50.024;19.220;2022-08-19T05:10:48;17.80;;;16.20;;
35290;SDS011;21411;50.024;19.220;2022-08-19T05:13:17;18.40;;;16.70;;
35290;SDS011;21411;50.024;19.220;2022-08-19T05:15:53;18.50;;;16.80;;
35290;SDS011;21411;50.024;19.220;2022-08-19T05:18:24;18.20;;;16.60;;
35290;SDS011;21411;50.024;19.220;2022-08-19T05:21:10;16.20;;;14.70;;
35290;SDS011;21411;50.024;19.220;2022-08-19T05:23:57;16.60;;;15.00;;
35290;SDS011;21411;50.024;19.220;2022-08-19T05:26:24;16.70;;;15.10;;
35290;SDS011;21411;50.024;19.220;2022-08-19T05:28:52;16.50;;;15.00;;
35290;SDS011;21411;50.024;19.220;2022-08-19T05:31:19;16.20;;;14.70;;
35290;SDS011;21411;50.024;19.220;2022-08-19T05:33:46;16.20;;;14.70;;
35290;SDS011;21411;50.024;19.220;2022-08-19T05:36:13;16.50;;;14.90;;
35290;SDS011;21411;50.024;19.220;2022-08-19T05:38:40;14.60;;;13.40;;
35290;SDS011;21411;50.024;19.220;2022-08-19T05:41:08;16.40;;;14.80;;
35290;SDS011;21411;50.024;19.220;2022-08-19T05:43:36;15.40;;;13.80;;
35290;SDS011;21411;50.024;19.220;2022-08-19T05:46:04;13.90;;;12.70;;
35290;SDS011;21411;50.024;19.220;2022-08-19T05:48:33;14.50;;;12.90;;
35290;SDS011;21411;50.024;19.220;2022-08-19T05:51:07;14.70;;;13.20;;
35290;SDS011;21411;50.024;19.220;2022-08-19T05:53:34;14.00;;;12.70;;
35290;SDS011;21411;50.024;19.220;2022-08-19T05:56:05;14.10;;;12.50;;
35290;SDS011;21411;50.024;19.220;2022-08-19T05:58:36;14.20;;;12.60;;
35290;SDS011;21411;50.024;19.220;2022-08-19T06:01:04;14.00;;;12.90;;
35290;SDS011;21411;50.024;19.220;2022-08-19T06:03:36;12.90;;;11.70;;
35290;SDS011;21411;50.024;19.220;2022-08-19T06:06:04;14.00;;;12.70;;
35290;SDS011;21411;50.024;19.220;2022-08-19T06:08:31;13.30;;;11.90;;
35290;SDS011;21411;50.024;19.220;2022-08-19T06:11:11;16.80;;;12.20;;
35290;SDS011;21411;50.024;19.220;2022-08-19T06:13:40;13.10;;;12.00;;
35290;SDS011;21411;50.024;19.220;2022-08-19T06:16:07;13.60;;;12.20;;
35290;SDS011;21411;50.024;19.220;2022-08-19T06:18:34;13.10;;;11.80;;
35290;SDS011;21411;50.024;19.220;2022-08-19T06:21:00;13.00;;;11.90;;
35290;SDS011;21411;50.024;19.220;2022-08-19T06:23:30;12.70;;;11.70;;
35290;SDS011;21411;50.024;19.220;2022-08-19T06:25:57;12.80;;;11.70;;
35290;SDS011;21411;50.024;19.220;2022-08-19T06:28:23;13.60;;;12.50;;
35290;SDS011;21411;50.024;19.220;2022-08-19T06:30:50;13.50;;;12.10;;
35290;SDS011;21411;50.024;19.220;2022-08-19T06:33:17;14.20;;;13.00;;
35290;SDS011;21411;50.024;19.220;2022-08-19T06:35:43;13.50;;;12.40;;
35290;SDS011;21411;50.024;19.220;2022-08-19T06:38:10;12.60;;;11.50;;
35290;SDS011;21411;50.024;19.220;2022-08-19T06:40:36;13.20;;;12.00;;
35290;SDS011;21411;50.024;19.220;2022-08-19T06:43:04;13.60;;;12.30;;
35290;SDS011;21411;50.024;19.220;2022-08-19T06:45:30;14.00;;;12.70;;
35290;SDS011;21411;50.024;19.220;2022-08-19T06:47:57;13.90;;;12.70;;
35290;SDS011;21411;50.024;19.220;2022-08-19T06:50:24;14.30;;;12.90;;
35290;SDS011;21411;50.024;19.220;2022-08-19T06:52:51;12.60;;;11.40;;
35290;SDS011;21411;50.024;19.220;2022-08-19T06:55:18;13.50;;;12.30;;
35290;SDS011;21411;50.024;19.220;2022-08-19T06:57:44;12.50;;;11.50;;
35290;SDS011;21411;50.024;19.220;2022-08-19T07:00:12;12.60;;;11.50;;
35290;SDS011;21411;50.024;19.220;2022-08-19T07:02:42;12.90;;;11.90;;
35290;SDS011;21411;50.024;19.220;2022-08-19T07:05:09;12.60;;;11.60;;
35290;SDS011;21411;50.024;19.220;2022-08-19T07:07:36;12.00;;;11.00;;
35290;SDS011;21411;50.024;19.220;2022-08-19T07:10:02;13.10;;;12.10;;
35290;SDS011;21411;50.024;19.220;2022-08-19T07:12:30;12.50;;;11.40;;
35290;SDS011;21411;50.024;19.220;2022-08-19T07:15:03;11.60;;;10.70;;
35290;SDS011;21411;50.024;19.220;2022-08-19T07:17:30;12.20;;;11.00;;
35290;SDS011;21411;50.024;19.220;2022-08-19T07:19:58;13.40;;;12.00;;
35290;SDS011;21411;50.024;19.220;2022-08-19T07:22:24;11.30;;;10.20;;
35290;SDS011;21411;50.024;19.220;2022-08-19T07:24:51;12.10;;;10.60;;
35290;SDS011;21411;50.024;19.220;2022-08-19T07:27:18;11.00;;;10.20;;
35290;SDS011;21411;50.024;19.220;2022-08-19T07:29:45;12.70;;;11.50;;
35290;SDS011;21411;50.024;19.220;2022-08-19T07:32:12;12.20;;;11.10;;
35290;SDS011;21411;50.024;19.220;2022-08-19T07:34:38;12.40;;;11.30;;
35290;SDS011;21411;50.024;19.220;2022-08-19T07:37:06;12.40;;;11.30;;
35290;SDS011;21411;50.024;19.220;2022-08-19T07:39:33;11.80;;;10.80;;
35290;SDS011;21411;50.024;19.220;2022-08-19T07:42:03;11.90;;;11.00;;
35290;SDS011;21411;50.024;19.220;2022-08-19T07:44:33;12.00;;;10.60;;
35290;SDS011;21411;50.024;19.220;2022-08-19T07:47:01;13.00;;;11.70;;
35290;SDS011;21411;50.024;19.220;2022-08-19T07:49:28;11.20;;;10.40;;
35290;SDS011;21411;50.024;19.220;2022-08-19T07:51:57;12.10;;;11.00;;
35290;SDS011;21411;50.024;19.220;2022-08-19T07:54:29;13.50;;;12.20;;
35290;SDS011;21411;50.024;19.220;2022-08-19T07:56:57;12.60;;;11.40;;
35290;SDS011;21411;50.024;19.220;2022-08-19T07:59:24;12.60;;;11.30;;
35290;SDS011;21411;50.024;19.220;2022-08-19T08:01:51;11.60;;;10.50;;
35290;SDS011;21411;50.024;19.220;2022-08-19T08:04:18;12.40;;;11.20;;
35290;SDS011;21411;50.024;19.220;2022-08-19T08:07:04;11.70;;;10.40;;
35290;SDS011;21411;50.024;19.220;2022-08-19T08:09:51;12.20;;;10.80;;
35290;SDS011;21411;50.024;19.220;2022-08-19T08:12:23;11.10;;;10.20;;
35290;SDS011;21411;50.024;19.220;2022-08-19T08:14:55;12.40;;;11.40;;
35290;SDS011;21411;50.024;19.220;2022-08-19T08:17:25;10.20;;;9.30;;
35290;SDS011;21411;50.024;19.220;2022-08-19T08:19:53;11.60;;;10.60;;
35290;SDS011;21411;50.024;19.220;2022-08-19T08:22:21;10.90;;;10.10;;
35290;SDS011;21411;50.024;19.220;2022-08-19T08:25:08;10.70;;;9.60;;
35290;SDS011;21411;50.024;19.220;2022-08-19T08:27:38;10.30;;;9.20;;
35290;SDS011;21411;50.024;19.220;2022-08-19T08:30:07;11.90;;;10.90;;
35290;SDS011;21411;50.024;19.220;2022-08-19T08:32:36;14.80;;;10.80;;
35290;SDS011;21411;50.024;19.220;2022-08-19T08:35:05;10.10;;;9.20;;
35290;SDS011;21411;50.024;19.220;2022-08-19T08:37:34;28.20;;;10.50;;
35290;SDS011;21411;50.024;19.220;2022-08-19T08:40:03;10.60;;;9.60;;
35290;SDS011;21411;50.024;19.220;2022-08-19T08:42:34;10.30;;;9.40;;
35290;SDS011;21411;50.024;19.220;2022-08-19T08:45:08;10.30;;;9.40;;
35290;SDS011;21411;50.024;19.220;2022-08-19T08:47:43;11.10;;;10.00;;
35290;SDS011;21411;50.024;19.220;2022-08-19T08:50:16;10.50;;;9.50;;
35290;SDS011;21411;50.024;19.220;2022-08-19T08:52:46;14.30;;;10.10;;
35290;SDS011;21411;50.024;19.220;2022-08-19T08:55:19;10.40;;;9.50;;
35290;SDS011;21411;50.024;19.220;2022-08-19T09:00:25;10.50;;;9.40;;
35290;SDS011;21411;50.024;19.220;2022-08-19T09:02:55;10.50;;;9.50;;
35290;SDS011;21411;50.024;19.220;2022-08-19T09:05:25;10.60;;;9.50;;
35290;SDS011;21411;50.024;19.220;2022-08-19T09:08:06;11.30;;;10.30;;
35290;SDS011;21411;50.024;19.220;2022-08-19T09:10:37;11.00;;;9.90;;
35290;SDS011;21411;50.024;19.220;2022-08-19T09:15:56;15.60;;;9.20;;
35290;SDS011;21411;50.024;19.220;2022-08-19T09:18:38;11.00;;;8.60;;
35290;SDS011;21411;50.024;19.220;2022-08-19T09:21:24;13.40;;;9.20;;
35290;SDS011;21411;50.024;19.220;2022-08-19T09:23:52;15.90;;;10.00;;
35290;SDS011;21411;50.024;19.220;2022-08-19T09:26:19;10.70;;;8.10;;
35290;SDS011;21411;50.024;19.220;2022-08-19T09:28:49;8.90;;;8.20;;
35290;SDS011;21411;50.024;19.220;2022-08-19T09:31:20;10.70;;;9.50;;
35290;SDS011;21411;50.024;19.220;2022-08-19T09:33:49;8.70;;;7.80;;
35290;SDS011;21411;50.024;19.220;2022-08-19T09:36:17;9.80;;;8.40;;
35290;SDS011;21411;50.024;19.220;2022-08-19T09:38:46;8.70;;;8.00;;
35290;SDS011;21411;50.024;19.220;2022-08-19T09:41:14;10.80;;;9.20;;
35290;SDS011;21411;50.024;19.220;2022-08-19T09:43:43;9.60;;;8.50;;
35290;SDS011;21411;50.024;19.220;2022-08-19T09:46:12;14.20;;;9.80;;
35290;SDS011;21411;50.024;19.220;2022-08-19T09:48:40;10.00;;;9.00;;
35290;SDS011;21411;50.024;19.220;2022-08-19T09:51:09;10.50;;;8.80;;
35290;SDS011;21411;50.024;19.220;2022-08-19T09:53:44;10.70;;;9.70;;
35290;SDS011;21411;50.024;19.220;2022-08-19T09:56:12;11.50;;;10.50;;
35290;SDS011;21411;50.024;19.220;2022-08-19T09:58:39;12.10;;;10.90;;
35290;SDS011;21411;50.024;19.220;2022-08-19T10:01:07;13.00;;;9.70;;
35290;SDS011;21411;50.024;19.220;2022-08-19T10:03:35;10.60;;;9.70;;
35290;SDS011;21411;50.024;19.220;2022-08-19T10:06:04;12.20;;;9.70;;
35290;SDS011;21411;50.024;19.220;2022-08-19T10:08:33;11.90;;;9.90;;
35290;SDS011;21411;50.024;19.220;2022-08-19T10:11:01;11.70;;;10.60;;
35290;SDS011;21411;50.024;19.220;2022-08-19T10:13:30;12.00;;;10.80;;
35290;SDS011;21411;50.024;19.220;2022-08-19T10:16:06;11.80;;;10.80;;
35290;SDS011;21411;50.024;19.220;2022-08-19T10:18:35;10.70;;;9.60;;
35290;SDS011;21411;50.024;19.220;2022-08-19T10:21:07;13.10;;;10.20;;
35290;SDS011;21411;50.024;19.220;2022-08-19T10:23:38;11.70;;;9.80;;
35290;SDS011;21411;50.024;19.220;2022-08-19T10:26:06;10.20;;;9.20;;
35290;SDS011;21411;50.024;19.220;2022-08-19T10:28:34;8.90;;;8.10;;
35290;SDS011;21411;50.024;19.220;2022-08-19T10:31:05;10.70;;;8.40;;
35290;SDS011;21411;50.024;19.220;2022-08-19T10:33:34;8.30;;;7.60;;
35290;SDS011;21411;50.024;19.220;2022-08-19T10:36:06;8.60;;;7.80;;
35290;SDS011;21411;50.024;19.220;2022-08-19T10:38:36;9.60;;;8.50;;
35290;SDS011;21411;50.024;19.220;2022-08-19T10:41:14;9.20;;;8.20;;
35290;SDS011;21411;50.024;19.220;2022-08-19T10:43:45;9.00;;;8.00;;
35290;SDS011;21411;50.024;19.220;2022-08-19T10:46:13;11.10;;;8.30;;
35290;SDS011;21411;50.024;19.220;2022-08-19T10:48:42;9.80;;;8.90;;
35290;SDS011;21411;50.024;19.220;2022-08-19T10:51:10;9.40;;;8.40;;
35290;SDS011;21411;50.024;19.220;2022-08-19T10:53:56;9.80;;;8.40;;
35290;SDS011;21411;50.024;19.220;2022-08-19T10:56:24;10.40;;;8.40;;
35290;SDS011;21411;50.024;19.220;2022-08-19T10:59:09;9.60;;;8.80;;
35290;SDS011;21411;50.024;19.220;2022-08-19T11:04:05;10.50;;;9.10;;
35290;SDS011;21411;50.024;19.220;2022-08-19T11:06:36;12.30;;;9.00;;
35290;SDS011;21411;50.024;19.220;2022-08-19T11:09:04;13.10;;;9.00;;
35290;SDS011;21411;50.024;19.220;2022-08-19T11:11:32;9.40;;;8.60;;
35290;SDS011;21411;50.024;19.220;2022-08-19T11:13:58;9.30;;;8.50;;
35290;SDS011;21411;50.024;19.220;2022-08-19T11:16:25;8.60;;;8.00;;
35290;SDS011;21411;50.024;19.220;2022-08-19T11:18:54;9.10;;;8.10;;
35290;SDS011;21411;50.024;19.220;2022-08-19T11:21:26;8.90;;;8.10;;
35290;SDS011;21411;50.024;19.220;2022-08-19T11:23:55;9.20;;;8.30;;
35290;SDS011;21411;50.024;19.220;2022-08-19T11:26:24;9.30;;;8.40;;
35290;SDS011;21411;50.024;19.220;2022-08-19T11:28:52;8.30;;;7.50;;
35290;SDS011;21411;50.024;19.220;2022-08-19T11:31:24;11.80;;;7.10;;
35290;SDS011;21411;50.024;19.220;2022-08-19T11:33:55;9.50;;;6.60;;
35290;SDS011;21411;50.024;19.220;2022-08-19T11:36:23;9.40;;;7.10;;
35290;SDS011;21411;50.024;19.220;2022-08-19T11:38:50;8.50;;;6.90;;
35290;SDS011;21411;50.024;19.220;2022-08-19T11:41:17;7.80;;;7.20;;
35290;SDS011;21411;50.024;19.220;2022-08-19T11:46:13;9.40;;;7.00;;
35290;SDS011;21411;50.024;19.220;2022-08-19T11:48:41;10.20;;;7.50;;
35290;SDS011;21411;50.024;19.220;2022-08-19T11:51:09;6.90;;;6.00;;
35290;SDS011;21411;50.024;19.220;2022-08-19T11:53:38;9.10;;;6.30;;
35290;SDS011;21411;50.024;19.220;2022-08-19T11:56:06;8.60;;;6.30;;
35290;SDS011;21411;50.024;19.220;2022-08-19T11:58:34;9.30;;;6.90;;
35290;SDS011;21411;50.024;19.220;2022-08-19T12:01:04;10.00;;;7.00;;
35290;SDS011;21411;50.024;19.220;2022-08-19T12:03:33;7.70;;;6.90;;
35290;SDS011;21411;50.024;19.220;2022-08-19T12:06:07;9.70;;;6.80;;
35290;SDS011;21411;50.024;19.220;2022-08-19T12:08:34;8.10;;;6.80;;
35290;SDS011;21411;50.024;19.220;2022-08-19T12:11:01;8.80;;;6.60;;
35290;SDS011;21411;50.024;19.220;2022-08-19T12:13:29;8.50;;;6.40;;
35290;SDS011;21411;50.024;19.220;2022-08-19T12:15:56;7.30;;;6.60;;
35290;SDS011;21411;50.024;19.220;2022-08-19T12:18:24;7.00;;;6.30;;
35290;SDS011;21411;50.024;19.220;2022-08-19T12:20:51;8.50;;;7.30;;
35290;SDS011;21411;50.024;19.220;2022-08-19T12:23:20;6.50;;;5.90;;
35290;SDS011;21411;50.024;19.220;2022-08-19T12:25:47;8.40;;;7.10;;
35290;SDS011;21411;50.024;19.220;2022-08-19T12:28:19;11.10;;;7.20;;
35290;SDS011;21411;50.024;19.220;2022-08-19T12:30:46;8.30;;;6.70;;
35290;SDS011;21411;50.024;19.220;2022-08-19T12:33:14;10.20;;;6.60;;
35290;SDS011;21411;50.024;19.220;2022-08-19T12:35:41;7.80;;;6.30;;
35290;SDS011;21411;50.024;19.220;2022-08-19T12:38:10;8.90;;;7.90;;
35290;SDS011;21411;50.024;19.220;2022-08-19T12:40:37;7.30;;;6.80;;
35290;SDS011;21411;50.024;19.220;2022-08-19T12:43:06;9.80;;;7.20;;
35290;SDS011;21411;50.024;19.220;2022-08-19T12:45:33;8.10;;;7.30;;
35290;SDS011;21411;50.024;19.220;2022-08-19T12:48:01;13.20;;;10.40;;
35290;SDS011;21411;50.024;19.220;2022-08-19T12:50:28;10.40;;;7.40;;
35290;SDS011;21411;50.024;19.220;2022-08-19T12:52:54;10.60;;;6.60;;
35290;SDS011;21411;50.024;19.220;2022-08-19T12:55:21;10.00;;;8.10;;
35290;SDS011;21411;50.024;19.220;2022-08-19T12:57:47;8.40;;;7.10;;
35290;SDS011;21411;50.024;19.220;2022-08-19T13:00:16;11.40;;;7.60;;
35290;SDS011;21411;50.024;19.220;2022-08-19T13:02:45;11.00;;;7.20;;
35290;SDS011;21411;50.024;19.220;2022-08-19T13:05:19;10.90;;;8.70;;
35290;SDS011;21411;50.024;19.220;2022-08-19T13:07:49;8.90;;;7.60;;
35290;SDS011;21411;50.024;19.220;2022-08-19T13:10:19;10.90;;;7.70;;
35290;SDS011;21411;50.024;19.220;2022-08-19T13:12:47;7.10;;;6.30;;
35290;SDS011;21411;50.024;19.220;2022-08-19T13:15:15;7.80;;;7.00;;
35290;SDS011;21411;50.024;19.220;2022-08-19T13:17:47;11.40;;;7.50;;
35290;SDS011;21411;50.024;19.220;2022-08-19T13:20:16;7.50;;;6.90;;
35290;SDS011;21411;50.024;19.220;2022-08-19T13:22:45;10.70;;;6.90;;
35290;SDS011;21411;50.024;19.220;2022-08-19T13:25:13;9.10;;;7.30;;
35290;SDS011;21411;50.024;19.220;2022-08-19T13:27:42;9.50;;;7.40;;
35290;SDS011;21411;50.024;19.220;2022-08-19T13:30:10;10.20;;;7.70;;
35290;SDS011;21411;50.024;19.220;2022-08-19T13:32:57;8.80;;;7.80;;
35290;SDS011;21411;50.024;19.220;2022-08-19T13:35:49;9.60;;;7.60;;
35290;SDS011;21411;50.024;19.220;2022-08-19T13:38:23;9.10;;;8.10;;
35290;SDS011;21411;50.024;19.220;2022-08-19T13:40:51;12.70;;;8.60;;
35290;SDS011;21411;50.024;19.220;2022-08-19T13:43:19;10.10;;;8.50;;
35290;SDS011;21411;50.024;19.220;2022-08-19T13:45:48;10.20;;;8.00;;
35290;SDS011;21411;50.024;19.220;2022-08-19T13:48:18;10.10;;;8.70;;
35290;SDS011;21411;50.024;19.220;2022-08-19T13:50:45;10.00;;;8.30;;
35290;SDS011;21411;50.024;19.220;2022-08-19T13:53:13;11.30;;;8.50;;
35290;SDS011;21411;50.024;19.220;2022-08-19T13:55:41;8.40;;;7.70;;
35290;SDS011;21411;50.024;19.220;2022-08-19T13:58:09;9.60;;;8.00;;
35290;SDS011;21411;50.024;19.220;2022-08-19T14:00:38;12.40;;;7.90;;
35290;SDS011;21411;50.024;19.220;2022-08-19T14:03:07;8.60;;;7.80;;
35290;SDS011;21411;50.024;19.220;2022-08-19T14:05:34;8.00;;;7.10;;
35290;SDS011;21411;50.024;19.220;2022-08-19T14:08:01;9.90;;;7.20;;
35290;SDS011;21411;50.024;19.220;2022-08-19T14:10:28;9.70;;;7.80;;
35290;SDS011;21411;50.024;19.220;2022-08-19T14:12:58;11.40;;;7.80;;
35290;SDS011;21411;50.024;19.220;2022-08-19T14:15:26;12.20;;;7.90;;
35290;SDS011;21411;50.024;19.220;2022-08-19T14:17:53;8.60;;;6.70;;
35290;SDS011;21411;50.024;19.220;2022-08-19T14:20:20;9.30;;;7.10;;
35290;SDS011;21411;50.024;19.220;2022-08-19T14:22:48;8.50;;;7.60;;
35290;SDS011;21411;50.024;19.220;2022-08-19T14:25:17;10.40;;;7.30;;
35290;SDS011;21411;50.024;19.220;2022-08-19T14:27:47;8.60;;;7.20;;
35290;SDS011;21411;50.024;19.220;2022-08-19T14:30:15;7.90;;;7.10;;
35290;SDS011;21411;50.024;19.220;2022-08-19T14:32:44;10.40;;;8.10;;
35290;SDS011;21411;50.024;19.220;2022-08-19T14:35:11;12.30;;;7.90;;
35290;SDS011;21411;50.024;19.220;2022-08-19T14:40:08;10.90;;;8.00;;
35290;SDS011;21411;50.024;19.220;2022-08-19T14:42:35;10.40;;;8.10;;
35290;SDS011;21411;50.024;19.220;2022-08-19T14:45:02;9.50;;;8.10;;
35290;SDS011;21411;50.024;19.220;2022-08-19T14:47:31;8.90;;;7.90;;